Terminal Aerodrome Forecast
Issued by NWS Charleston, WV

Current Version | Previous Version | Graphics & Text | Print | Product List | Glossary On
Versions: 1 2 3 4 5 6 7 8 9 10 11 12 13 14 15 16 17 18 19 20 21 22 23 24 25
000
FTUS41 KRLX 271300 AAA
TAFCRW
TAF AMD
KCRW 271345Z 2714/2812 00000KT 6SM BR FEW001 BKN140 BKN250
     FM271400 07004KT P6SM FEW150
     FM280100 00000KT P6SM SCT200
     FM280800 00000KT 5SM BR SCT200
     FM281100 00000KT 3SM BR BKN200=

USA.gov is the U.S. government's official web portal to all federal, state and local government web resources and services.